sensor_id;sensor_type;location;lat;lon;timestamp;P1;durP1;ratioP1;P2;durP2;ratioP2
26612;SDS011;14248;57.652;11.908;2022-12-18T00:01:21;49.55;;;19.40;;
26612;SDS011;14248;57.652;11.908;2022-12-18T00:03:54;50.45;;;20.48;;
26612;SDS011;14248;57.652;11.908;2022-12-18T00:06:21;45.95;;;19.48;;
26612;SDS011;14248;57.652;11.908;2022-12-18T00:08:50;46.22;;;20.58;;
26612;SDS011;14248;57.652;11.908;2022-12-18T00:11:18;49.83;;;20.08;;
26612;SDS011;14248;57.652;11.908;2022-12-18T00:13:45;48.08;;;19.30;;
26612;SDS011;14248;57.652;11.908;2022-12-18T00:16:14;47.25;;;19.70;;
26612;SDS011;14248;57.652;11.908;2022-12-18T00:18:44;46.67;;;20.90;;
26612;SDS011;14248;57.652;11.908;2022-12-18T00:21:12;55.72;;;22.92;;
26612;SDS011;14248;57.652;11.908;2022-12-18T00:23:40;54.70;;;21.73;;
26612;SDS011;14248;57.652;11.908;2022-12-18T00:26:10;53.42;;;22.15;;
26612;SDS011;14248;57.652;11.908;2022-12-18T00:28:40;51.83;;;20.92;;
26612;SDS011;14248;57.652;11.908;2022-12-18T00:31:09;53.75;;;22.40;;
26612;SDS011;14248;57.652;11.908;2022-12-18T00:33:37;50.50;;;21.25;;
26612;SDS011;14248;57.652;11.908;2022-12-18T00:38:37;57.20;;;22.13;;
26612;SDS011;14248;57.652;11.908;2022-12-18T00:41:04;50.72;;;21.25;;
26612;SDS011;14248;57.652;11.908;2022-12-18T00:43:30;51.08;;;20.48;;
26612;SDS011;14248;57.652;11.908;2022-12-18T00:45:55;50.42;;;21.25;;
26612;SDS011;14248;57.652;11.908;2022-12-18T00:48:21;50.33;;;21.30;;
26612;SDS011;14248;57.652;11.908;2022-12-18T00:50:47;48.85;;;20.73;;
26612;SDS011;14248;57.652;11.908;2022-12-18T00:53:13;44.60;;;19.35;;
26612;SDS011;14248;57.652;11.908;2022-12-18T00:55:39;50.65;;;22.55;;
26612;SDS011;14248;57.652;11.908;2022-12-18T00:58:07;45.35;;;20.30;;
26612;SDS011;14248;57.652;11.908;2022-12-18T01:00:33;48.88;;;20.35;;
26612;SDS011;14248;57.652;11.908;2022-12-18T01:02:59;48.33;;;19.85;;
26612;SDS011;14248;57.652;11.908;2022-12-18T01:05:25;47.67;;;20.48;;
26612;SDS011;14248;57.652;11.908;2022-12-18T01:07:52;46.22;;;20.20;;
26612;SDS011;14248;57.652;11.908;2022-12-18T01:10:17;42.65;;;18.77;;
26612;SDS011;14248;57.652;11.908;2022-12-18T01:12:44;46.17;;;19.38;;
26612;SDS011;14248;57.652;11.908;2022-12-18T01:15:12;45.88;;;19.80;;
26612;SDS011;14248;57.652;11.908;2022-12-18T01:17:38;38.88;;;18.02;;
26612;SDS011;14248;57.652;11.908;2022-12-18T01:20:05;48.78;;;19.30;;
26612;SDS011;14248;57.652;11.908;2022-12-18T01:22:31;45.13;;;18.88;;
26612;SDS011;14248;57.652;11.908;2022-12-18T01:24:56;49.88;;;20.23;;
26612;SDS011;14248;57.652;11.908;2022-12-18T01:27:22;44.72;;;20.02;;
26612;SDS011;14248;57.652;11.908;2022-12-18T01:29:48;46.63;;;20.30;;
26612;SDS011;14248;57.652;11.908;2022-12-18T01:32:14;49.38;;;19.80;;
26612;SDS011;14248;57.652;11.908;2022-12-18T01:34:40;42.20;;;19.40;;
26612;SDS011;14248;57.652;11.908;2022-12-18T01:37:06;41.45;;;18.83;;
26612;SDS011;14248;57.652;11.908;2022-12-18T01:39:31;44.35;;;19.23;;
26612;SDS011;14248;57.652;11.908;2022-12-18T01:41:58;49.63;;;19.77;;
26612;SDS011;14248;57.652;11.908;2022-12-18T01:49:50;39.25;;;17.42;;
26612;SDS011;14248;57.652;11.908;2022-12-18T01:52:17;41.30;;;17.33;;
26612;SDS011;14248;57.652;11.908;2022-12-18T01:54:43;38.30;;;16.48;;
26612;SDS011;14248;57.652;11.908;2022-12-18T01:57:10;36.08;;;16.55;;
26612;SDS011;14248;57.652;11.908;2022-12-18T01:59:36;38.78;;;15.93;;
26612;SDS011;14248;57.652;11.908;2022-12-18T02:02:04;37.58;;;16.60;;
26612;SDS011;14248;57.652;11.908;2022-12-18T02:04:31;36.03;;;16.50;;
26612;SDS011;14248;57.652;11.908;2022-12-18T02:09:40;43.25;;;16.77;;
26612;SDS011;14248;57.652;11.908;2022-12-18T02:12:21;42.47;;;16.80;;
26612;SDS011;14248;57.652;11.908;2022-12-18T02:14:54;42.17;;;16.70;;
26612;SDS011;14248;57.652;11.908;2022-12-18T02:17:25;39.55;;;17.25;;
26612;SDS011;14248;57.652;11.908;2022-12-18T02:20:01;40.53;;;15.95;;
26612;SDS011;14248;57.652;11.908;2022-12-18T02:28:25;37.97;;;13.38;;
26612;SDS011;14248;57.652;11.908;2022-12-18T02:30:56;38.95;;;14.10;;
26612;SDS011;14248;57.652;11.908;2022-12-18T02:33:26;30.52;;;13.07;;
26612;SDS011;14248;57.652;11.908;2022-12-18T02:35:53;32.78;;;13.27;;
26612;SDS011;14248;57.652;11.908;2022-12-18T02:38:22;32.63;;;14.07;;
26612;SDS011;14248;57.652;11.908;2022-12-18T02:40:50;33.10;;;12.68;;
26612;SDS011;14248;57.652;11.908;2022-12-18T02:43:18;33.38;;;12.52;;
26612;SDS011;14248;57.652;11.908;2022-12-18T02:45:47;33.10;;;11.85;;
26612;SDS011;14248;57.652;11.908;2022-12-18T02:48:18;37.33;;;12.90;;
26612;SDS011;14248;57.652;11.908;2022-12-18T02:51:08;29.90;;;13.27;;
26612;SDS011;14248;57.652;11.908;2022-12-18T02:54:06;32.17;;;11.88;;
26612;SDS011;14248;57.652;11.908;2022-12-18T02:56:46;29.88;;;11.73;;
26612;SDS011;14248;57.652;11.908;2022-12-18T02:59:19;29.98;;;11.80;;
26612;SDS011;14248;57.652;11.908;2022-12-18T03:01:54;31.77;;;12.05;;
26612;SDS011;14248;57.652;11.908;2022-12-18T03:04:26;30.38;;;12.75;;
26612;SDS011;14248;57.652;11.908;2022-12-18T03:06:57;34.28;;;13.15;;
26612;SDS011;14248;57.652;11.908;2022-12-18T03:09:29;35.58;;;13.18;;
26612;SDS011;14248;57.652;11.908;2022-12-18T03:12:02;34.42;;;12.25;;
26612;SDS011;14248;57.652;11.908;2022-12-18T03:17:30;28.42;;;11.73;;
26612;SDS011;14248;57.652;11.908;2022-12-18T03:20:00;35.03;;;13.10;;
26612;SDS011;14248;57.652;11.908;2022-12-18T03:25:00;31.75;;;12.23;;
26612;SDS011;14248;57.652;11.908;2022-12-18T03:27:29;33.47;;;12.25;;
26612;SDS011;14248;57.652;11.908;2022-12-18T03:32:33;40.00;;;13.32;;
26612;SDS011;14248;57.652;11.908;2022-12-18T03:35:25;34.63;;;13.10;;
26612;SDS011;14248;57.652;11.908;2022-12-18T03:40:21;36.88;;;13.95;;
26612;SDS011;14248;57.652;11.908;2022-12-18T03:43:07;37.38;;;13.50;;
26612;SDS011;14248;57.652;11.908;2022-12-18T03:45:42;29.17;;;12.55;;
26612;SDS011;14248;57.652;11.908;2022-12-18T03:48:29;30.58;;;12.27;;
26612;SDS011;14248;57.652;11.908;2022-12-18T03:51:05;31.65;;;13.05;;
26612;SDS011;14248;57.652;11.908;2022-12-18T03:53:56;31.25;;;13.32;;
26612;SDS011;14248;57.652;11.908;2022-12-18T03:56:25;44.28;;;14.63;;
26612;SDS011;14248;57.652;11.908;2022-12-18T03:58:54;40.42;;;14.48;;
26612;SDS011;14248;57.652;11.908;2022-12-18T04:01:23;35.70;;;13.88;;
26612;SDS011;14248;57.652;11.908;2022-12-18T04:03:56;39.15;;;13.73;;
26612;SDS011;14248;57.652;11.908;2022-12-18T04:06:24;42.33;;;15.18;;
26612;SDS011;14248;57.652;11.908;2022-12-18T04:08:52;34.80;;;13.55;;
26612;SDS011;14248;57.652;11.908;2022-12-18T04:11:18;42.70;;;13.93;;
26612;SDS011;14248;57.652;11.908;2022-12-18T04:13:45;30.45;;;13.18;;
26612;SDS011;14248;57.652;11.908;2022-12-18T04:16:10;33.88;;;11.82;;
26612;SDS011;14248;57.652;11.908;2022-12-18T04:18:37;30.10;;;12.25;;
26612;SDS011;14248;57.652;11.908;2022-12-18T04:21:03;31.17;;;11.80;;
26612;SDS011;14248;57.652;11.908;2022-12-18T04:23:29;31.13;;;11.65;;
26612;SDS011;14248;57.652;11.908;2022-12-18T04:25:54;35.92;;;12.48;;
26612;SDS011;14248;57.652;11.908;2022-12-18T04:28:20;30.52;;;11.52;;
26612;SDS011;14248;57.652;11.908;2022-12-18T04:30:46;33.17;;;12.35;;
26612;SDS011;14248;57.652;11.908;2022-12-18T04:33:16;32.97;;;11.98;;
26612;SDS011;14248;57.652;11.908;2022-12-18T04:35:42;32.65;;;11.35;;
26612;SDS011;14248;57.652;11.908;2022-12-18T04:38:08;24.83;;;10.95;;
26612;SDS011;14248;57.652;11.908;2022-12-18T04:40:36;28.73;;;11.38;;
26612;SDS011;14248;57.652;11.908;2022-12-18T04:43:03;29.63;;;11.82;;
26612;SDS011;14248;57.652;11.908;2022-12-18T04:45:29;28.15;;;10.02;;
26612;SDS011;14248;57.652;11.908;2022-12-18T04:47:59;23.73;;;9.55;;
26612;SDS011;14248;57.652;11.908;2022-12-18T04:50:26;21.15;;;9.13;;
26612;SDS011;14248;57.652;11.908;2022-12-18T04:52:53;24.23;;;9.90;;
26612;SDS011;14248;57.652;11.908;2022-12-18T04:55:20;21.15;;;8.20;;
26612;SDS011;14248;57.652;11.908;2022-12-18T04:57:46;21.08;;;7.72;;
26612;SDS011;14248;57.652;11.908;2022-12-18T05:00:12;22.70;;;8.77;;
26612;SDS011;14248;57.652;11.908;2022-12-18T05:02:38;20.20;;;7.68;;
26612;SDS011;14248;57.652;11.908;2022-12-18T05:05:04;22.05;;;7.32;;
26612;SDS011;14248;57.652;11.908;2022-12-18T05:07:30;23.33;;;8.50;;
26612;SDS011;14248;57.652;11.908;2022-12-18T05:09:55;18.48;;;7.22;;
26612;SDS011;14248;57.652;11.908;2022-12-18T05:12:21;16.52;;;7.00;;
26612;SDS011;14248;57.652;11.908;2022-12-18T05:14:47;15.60;;;6.55;;
26612;SDS011;14248;57.652;11.908;2022-12-18T05:17:14;15.43;;;6.80;;
26612;SDS011;14248;57.652;11.908;2022-12-18T05:19:39;16.83;;;6.93;;
26612;SDS011;14248;57.652;11.908;2022-12-18T05:22:05;17.60;;;6.55;;
26612;SDS011;14248;57.652;11.908;2022-12-18T05:24:33;16.40;;;6.07;;
26612;SDS011;14248;57.652;11.908;2022-12-18T05:27:01;15.30;;;5.60;;
26612;SDS011;14248;57.652;11.908;2022-12-18T05:29:35;13.57;;;5.10;;
26612;SDS011;14248;57.652;11.908;2022-12-18T05:32:02;15.95;;;5.05;;
26612;SDS011;14248;57.652;11.908;2022-12-18T05:34:29;12.65;;;4.70;;
26612;SDS011;14248;57.652;11.908;2022-12-18T05:36:56;12.73;;;4.97;;
26612;SDS011;14248;57.652;11.908;2022-12-18T05:39:21;15.30;;;4.95;;
26612;SDS011;14248;57.652;11.908;2022-12-18T05:41:49;13.45;;;5.05;;
26612;SDS011;14248;57.652;11.908;2022-12-18T05:44:15;18.58;;;5.15;;
26612;SDS011;14248;57.652;11.908;2022-12-18T05:46:40;15.05;;;4.47;;
26612;SDS011;14248;57.652;11.908;2022-12-18T05:49:06;9.65;;;4.50;;
26612;SDS011;14248;57.652;11.908;2022-12-18T05:51:33;11.93;;;4.50;;
26612;SDS011;14248;57.652;11.908;2022-12-18T05:54:01;13.15;;;4.78;;
26612;SDS011;14248;57.652;11.908;2022-12-18T05:56:26;13.15;;;4.82;;
26612;SDS011;14248;57.652;11.908;2022-12-18T05:58:52;10.48;;;4.68;;
26612;SDS011;14248;57.652;11.908;2022-12-18T06:01:20;15.50;;;5.00;;
26612;SDS011;14248;57.652;11.908;2022-12-18T06:03:52;15.85;;;4.90;;
26612;SDS011;14248;57.652;11.908;2022-12-18T06:06:19;9.90;;;4.45;;
26612;SDS011;14248;57.652;11.908;2022-12-18T06:08:49;11.13;;;4.80;;
26612;SDS011;14248;57.652;11.908;2022-12-18T06:11:19;12.18;;;4.32;;
26612;SDS011;14248;57.652;11.908;2022-12-18T06:16:21;20.30;;;5.43;;
26612;SDS011;14248;57.652;11.908;2022-12-18T06:18:48;16.88;;;4.53;;
26612;SDS011;14248;57.652;11.908;2022-12-18T06:21:15;12.52;;;4.70;;
26612;SDS011;14248;57.652;11.908;2022-12-18T06:23:41;12.93;;;4.68;;
26612;SDS011;14248;57.652;11.908;2022-12-18T06:26:09;12.27;;;5.03;;
26612;SDS011;14248;57.652;11.908;2022-12-18T06:28:36;14.88;;;4.50;;
26612;SDS011;14248;57.652;11.908;2022-12-18T06:31:02;13.52;;;4.50;;
26612;SDS011;14248;57.652;11.908;2022-12-18T06:33:29;12.13;;;4.05;;
26612;SDS011;14248;57.652;11.908;2022-12-18T06:35:59;10.70;;;4.20;;
26612;SDS011;14248;57.652;11.908;2022-12-18T06:38:27;12.40;;;3.92;;
26612;SDS011;14248;57.652;11.908;2022-12-18T06:41:00;15.02;;;4.32;;
26612;SDS011;14248;57.652;11.908;2022-12-18T06:43:25;11.45;;;4.53;;
26612;SDS011;14248;57.652;11.908;2022-12-18T06:45:57;12.40;;;4.13;;
26612;SDS011;14248;57.652;11.908;2022-12-18T06:48:27;11.98;;;4.53;;
26612;SDS011;14248;57.652;11.908;2022-12-18T06:50:55;9.38;;;4.20;;
26612;SDS011;14248;57.652;11.908;2022-12-18T06:53:23;10.88;;;4.63;;
26612;SDS011;14248;57.652;11.908;2022-12-18T06:55:50;14.18;;;4.43;;
26612;SDS011;14248;57.652;11.908;2022-12-18T06:58:16;13.15;;;3.90;;
26612;SDS011;14248;57.652;11.908;2022-12-18T07:00:42;11.25;;;4.20;;
26612;SDS011;14248;57.652;11.908;2022-12-18T07:03:09;15.02;;;4.18;;
26612;SDS011;14248;57.652;11.908;2022-12-18T07:05:39;13.00;;;4.38;;
26612;SDS011;14248;57.652;11.908;2022-12-18T07:08:07;12.80;;;4.05;;
26612;SDS011;14248;57.652;11.908;2022-12-18T07:10:40;11.60;;;4.07;;
26612;SDS011;14248;57.652;11.908;2022-12-18T07:13:09;11.05;;;4.30;;
26612;SDS011;14248;57.652;11.908;2022-12-18T07:15:36;14.27;;;3.72;;
26612;SDS011;14248;57.652;11.908;2022-12-18T07:18:03;10.93;;;3.58;;
26612;SDS011;14248;57.652;11.908;2022-12-18T07:20:28;9.18;;;3.65;;
26612;SDS011;14248;57.652;11.908;2022-12-18T07:22:58;10.80;;;3.53;;
26612;SDS011;14248;57.652;11.908;2022-12-18T07:25:26;12.20;;;3.47;;
26612;SDS011;14248;57.652;11.908;2022-12-18T07:27:54;12.68;;;3.40;;
26612;SDS011;14248;57.652;11.908;2022-12-18T07:30:19;10.07;;;3.30;;
26612;SDS011;14248;57.652;11.908;2022-12-18T07:32:45;8.98;;;2.97;;
26612;SDS011;14248;57.652;11.908;2022-12-18T07:35:11;11.48;;;3.50;;
26612;SDS011;14248;57.652;11.908;2022-12-18T07:37:40;6.30;;;2.95;;
26612;SDS011;14248;57.652;11.908;2022-12-18T07:40:07;9.90;;;4.05;;
26612;SDS011;14248;57.652;11.908;2022-12-18T07:42:33;15.30;;;3.88;;
26612;SDS011;14248;57.652;11.908;2022-12-18T07:45:01;14.00;;;3.55;;
26612;SDS011;14248;57.652;11.908;2022-12-18T07:47:33;7.60;;;3.13;;
26612;SDS011;14248;57.652;11.908;2022-12-18T07:50:01;6.22;;;3.15;;
26612;SDS011;14248;57.652;11.908;2022-12-18T07:52:28;13.68;;;3.65;;
26612;SDS011;14248;57.652;11.908;2022-12-18T07:54:54;11.90;;;3.25;;
26612;SDS011;14248;57.652;11.908;2022-12-18T07:57:20;10.70;;;3.33;;
26612;SDS011;14248;57.652;11.908;2022-12-18T07:59:46;14.77;;;3.78;;
26612;SDS011;14248;57.652;11.908;2022-12-18T08:02:12;9.90;;;3.38;;
26612;SDS011;14248;57.652;11.908;2022-12-18T08:04:37;9.90;;;3.00;;
26612;SDS011;14248;57.652;11.908;2022-12-18T08:07:03;13.75;;;3.65;;
26612;SDS011;14248;57.652;11.908;2022-12-18T08:09:30;10.43;;;3.92;;
26612;SDS011;14248;57.652;11.908;2022-12-18T08:11:56;14.20;;;3.58;;
26612;SDS011;14248;57.652;11.908;2022-12-18T08:14:24;15.38;;;3.92;;
26612;SDS011;14248;57.652;11.908;2022-12-18T08:16:54;12.15;;;3.58;;
26612;SDS011;14248;57.652;11.908;2022-12-18T08:19:21;8.90;;;3.63;;
26612;SDS011;14248;57.652;11.908;2022-12-18T08:21:47;12.35;;;3.30;;
26612;SDS011;14248;57.652;11.908;2022-12-18T08:24:14;13.23;;;3.72;;
26612;SDS011;14248;57.652;11.908;2022-12-18T08:26:40;16.80;;;3.72;;
26612;SDS011;14248;57.652;11.908;2022-12-18T08:29:06;10.65;;;3.42;;
26612;SDS011;14248;57.652;11.908;2022-12-18T08:31:31;17.60;;;4.30;;
26612;SDS011;14248;57.652;11.908;2022-12-18T08:34:00;12.77;;;3.72;;
26612;SDS011;14248;57.652;11.908;2022-12-18T08:36:25;10.60;;;4.00;;
26612;SDS011;14248;57.652;11.908;2022-12-18T08:38:51;11.93;;;4.20;;
26612;SDS011;14248;57.652;11.908;2022-12-18T08:41:17;11.88;;;4.22;;
26612;SDS011;14248;57.652;11.908;2022-12-18T08:43:43;12.85;;;4.22;;
26612;SDS011;14248;57.652;11.908;2022-12-18T08:46:39;11.82;;;4.47;;
26612;SDS011;14248;57.652;11.908;2022-12-18T08:49:07;11.60;;;4.40;;
26612;SDS011;14248;57.652;11.908;2022-12-18T08:51:34;13.57;;;5.07;;
26612;SDS011;14248;57.652;11.908;2022-12-18T08:54:01;13.23;;;4.68;;
26612;SDS011;14248;57.652;11.908;2022-12-18T08:56:28;11.20;;;4.85;;
26612;SDS011;14248;57.652;11.908;2022-12-18T08:58:55;18.95;;;5.28;;
26612;SDS011;14248;57.652;11.908;2022-12-18T09:01:21;12.98;;;4.43;;
26612;SDS011;14248;57.652;11.908;2022-12-18T09:03:47;14.63;;;4.88;;
26612;SDS011;14248;57.652;11.908;2022-12-18T09:06:15;17.13;;;5.47;;
26612;SDS011;14248;57.652;11.908;2022-12-18T09:08:43;12.18;;;4.28;;
26612;SDS011;14248;57.652;11.908;2022-12-18T09:11:18;19.20;;;5.85;;
26612;SDS011;14248;57.652;11.908;2022-12-18T09:13:52;17.20;;;4.55;;
26612;SDS011;14248;57.652;11.908;2022-12-18T09:16:19;14.43;;;5.50;;
26612;SDS011;14248;57.652;11.908;2022-12-18T09:18:45;12.90;;;5.00;;
26612;SDS011;14248;57.652;11.908;2022-12-18T09:21:13;14.52;;;5.35;;
26612;SDS011;14248;57.652;11.908;2022-12-18T09:23:54;12.80;;;5.15;;
26612;SDS011;14248;57.652;11.908;2022-12-18T09:26:21;14.10;;;4.72;;
26612;SDS011;14248;57.652;11.908;2022-12-18T09:28:48;14.30;;;5.00;;
26612;SDS011;14248;57.652;11.908;2022-12-18T09:31:17;15.35;;;5.05;;
26612;SDS011;14248;57.652;11.908;2022-12-18T09:33:45;10.88;;;4.22;;
26612;SDS011;14248;57.652;11.908;2022-12-18T09:36:13;14.07;;;4.50;;
26612;SDS011;14248;57.652;11.908;2022-12-18T09:38:41;14.65;;;4.80;;
26612;SDS011;14248;57.652;11.908;2022-12-18T09:44:03;11.88;;;4.50;;
26612;SDS011;14248;57.652;11.908;2022-12-18T09:49:22;14.23;;;5.25;;
26612;SDS011;14248;57.652;11.908;2022-12-18T09:51:52;17.40;;;4.95;;
26612;SDS011;14248;57.652;11.908;2022-12-18T09:54:37;14.02;;;4.85;;
26612;SDS011;14248;57.652;11.908;2022-12-18T09:57:05;13.23;;;4.50;;
26612;SDS011;14248;57.652;11.908;2022-12-18T09:59:35;12.73;;;3.83;;
26612;SDS011;14248;57.652;11.908;2022-12-18T10:04:43;12.07;;;4.07;;
26612;SDS011;14248;57.652;11.908;2022-12-18T10:07:27;13.90;;;4.15;;
26612;SDS011;14248;57.652;11.908;2022-12-18T10:10:23;12.70;;;4.03;;
26612;SDS011;14248;57.652;11.908;2022-12-18T10:15:42;14.50;;;4.05;;
26612;SDS011;14248;57.652;11.908;2022-12-18T10:21:51;13.80;;;4.43;;
26612;SDS011;14248;57.652;11.908;2022-12-18T10:27:16;13.63;;;4.05;;
26612;SDS011;14248;57.652;11.908;2022-12-18T10:29:46;11.13;;;3.92;;
26612;SDS011;14248;57.652;11.908;2022-12-18T10:32:20;11.80;;;3.83;;
26612;SDS011;14248;57.652;11.908;2022-12-18T10:34:56;10.13;;;3.92;;
26612;SDS011;14248;57.652;11.908;2022-12-18T10:37:25;11.48;;;4.15;;
26612;SDS011;14248;57.652;11.908;2022-12-18T10:40:10;13.98;;;3.65;;
26612;SDS011;14248;57.652;11.908;2022-12-18T10:42:38;11.90;;;3.53;;
26612;SDS011;14248;57.652;11.908;2022-12-18T10:45:13;8.85;;;3.63;;
26612;SDS011;14248;57.652;11.908;2022-12-18T10:47:47;9.18;;;3.40;;
26612;SDS011;14248;57.652;11.908;2022-12-18T10:53:01;10.73;;;3.22;;
26612;SDS011;14248;57.652;11.908;2022-12-18T10:55:33;8.38;;;3.17;;
26612;SDS011;14248;57.652;11.908;2022-12-18T11:01:10;14.60;;;3.80;;
26612;SDS011;14248;57.652;11.908;2022-12-18T11:03:51;10.05;;;3.60;;
26612;SDS011;14248;57.652;11.908;2022-12-18T11:06:25;11.32;;;3.35;;
26612;SDS011;14248;57.652;11.908;2022-12-18T11:09:04;11.63;;;3.78;;
26612;SDS011;14248;57.652;11.908;2022-12-18T11:11:42;10.23;;;3.30;;
26612;SDS011;14248;57.652;11.908;2022-12-18T11:14:18;10.55;;;3.78;;
26612;SDS011;14248;57.652;11.908;2022-12-18T11:16:50;11.95;;;3.20;;
26612;SDS011;14248;57.652;11.908;2022-12-18T11:19:24;10.60;;;3.30;;
26612;SDS011;14248;57.652;11.908;2022-12-18T11:22:18;14.23;;;3.67;;
26612;SDS011;14248;57.652;11.908;2022-12-18T11:27:22;9.32;;;3.33;;
26612;SDS011;14248;57.652;11.908;2022-12-18T11:29:49;15.63;;;3.88;;
26612;SDS011;14248;57.652;11.908;2022-12-18T11:35:15;8.90;;;3.30;;
26612;SDS011;14248;57.652;11.908;2022-12-18T11:37:49;13.40;;;4.50;;
26612;SDS011;14248;57.652;11.908;2022-12-18T11:40:25;14.05;;;4.35;;
26612;SDS011;14248;57.652;11.908;2022-12-18T11:43:35;12.30;;;3.92;;
26612;SDS011;14248;57.652;11.908;2022-12-18T11:46:06;13.52;;;4.20;;
26612;SDS011;14248;57.652;11.908;2022-12-18T11:51:25;12.25;;;4.28;;
26612;SDS011;14248;57.652;11.908;2022-12-18T11:53:58;13.07;;;4.18;;
26612;SDS011;14248;57.652;11.908;2022-12-18T11:56:39;12.68;;;3.38;;
26612;SDS011;14248;57.652;11.908;2022-12-18T11:59:33;11.30;;;4.32;;
26612;SDS011;14248;57.652;11.908;2022-12-18T12:10:09;13.15;;;4.22;;
26612;SDS011;14248;57.652;11.908;2022-12-18T12:20:52;13.25;;;4.20;;
26612;SDS011;14248;57.652;11.908;2022-12-18T12:26:15;14.65;;;4.25;;
26612;SDS011;14248;57.652;11.908;2022-12-18T12:29:05;15.50;;;3.70;;
26612;SDS011;14248;57.652;11.908;2022-12-18T12:32:04;11.35;;;3.78;;
26612;SDS011;14248;57.652;11.908;2022-12-18T12:40:11;12.25;;;3.20;;
26612;SDS011;14248;57.652;11.908;2022-12-18T12:42:43;15.23;;;4.00;;
26612;SDS011;14248;57.652;11.908;2022-12-18T12:53:43;8.75;;;3.10;;
26612;SDS011;14248;57.652;11.908;2022-12-18T12:56:11;9.23;;;3.53;;
26612;SDS011;14248;57.652;11.908;2022-12-18T13:01:35;9.07;;;2.92;;
26612;SDS011;14248;57.652;11.908;2022-12-18T13:04:15;10.50;;;3.15;;
26612;SDS011;14248;57.652;11.908;2022-12-18T13:09:31;10.68;;;3.35;;
26612;SDS011;14248;57.652;11.908;2022-12-18T13:12:04;6.38;;;2.28;;
26612;SDS011;14248;57.652;11.908;2022-12-18T13:14:53;8.32;;;2.30;;
26612;SDS011;14248;57.652;11.908;2022-12-18T13:17:36;6.72;;;2.20;;
26612;SDS011;14248;57.652;11.908;2022-12-18T13:20:11;11.45;;;2.25;;
26612;SDS011;14248;57.652;11.908;2022-12-18T13:22:43;11.25;;;2.58;;
26612;SDS011;14248;57.652;11.908;2022-12-18T13:27:59;5.47;;;1.98;;
26612;SDS011;14248;57.652;11.908;2022-12-18T13:38:23;8.70;;;2.45;;
26612;SDS011;14248;57.652;11.908;2022-12-18T13:43:48;11.93;;;2.90;;
26612;SDS011;14248;57.652;11.908;2022-12-18T13:51:41;7.50;;;2.45;;
26612;SDS011;14248;57.652;11.908;2022-12-18T13:56:59;12.68;;;3.22;;
26612;SDS011;14248;57.652;11.908;2022-12-18T13:59:26;13.70;;;2.40;;
26612;SDS011;14248;57.652;11.908;2022-12-18T14:02:11;11.45;;;3.00;;
26612;SDS011;14248;57.652;11.908;2022-12-18T14:04:44;11.75;;;2.58;;
26612;SDS011;14248;57.652;11.908;2022-12-18T14:07:20;7.38;;;2.28;;
26612;SDS011;14248;57.652;11.908;2022-12-18T14:09:50;8.88;;;2.70;;
26612;SDS011;14248;57.652;11.908;2022-12-18T14:12:20;7.47;;;2.53;;
26612;SDS011;14248;57.652;11.908;2022-12-18T14:17:46;11.35;;;2.58;;
26612;SDS011;14248;57.652;11.908;2022-12-18T14:20:17;10.25;;;2.42;;
26612;SDS011;14248;57.652;11.908;2022-12-18T14:22:46;10.93;;;2.80;;
26612;SDS011;14248;57.652;11.908;2022-12-18T14:27:45;9.20;;;3.10;;
26612;SDS011;14248;57.652;11.908;2022-12-18T14:30:32;6.47;;;2.60;;
26612;SDS011;14248;57.652;11.908;2022-12-18T14:35:59;9.95;;;3.33;;
26612;SDS011;14248;57.652;11.908;2022-12-18T14:38:39;11.00;;;3.25;;
26612;SDS011;14248;57.652;11.908;2022-12-18T14:41:06;18.92;;;4.22;;
26612;SDS011;14248;57.652;11.908;2022-12-18T14:43:33;12.15;;;3.90;;
26612;SDS011;14248;57.652;11.908;2022-12-18T14:46:00;11.73;;;4.38;;
26612;SDS011;14248;57.652;11.908;2022-12-18T14:48:39;13.00;;;4.93;;
26612;SDS011;14248;57.652;11.908;2022-12-18T14:51:13;20.48;;;6.75;;
26612;SDS011;14248;57.652;11.908;2022-12-18T14:56:18;15.90;;;6.78;;
26612;SDS011;14248;57.652;11.908;2022-12-18T15:01:17;21.52;;;8.23;;
26612;SDS011;14248;57.652;11.908;2022-12-18T15:03:43;25.35;;;9.68;;
26612;SDS011;14248;57.652;11.908;2022-12-18T15:06:18;22.27;;;8.88;;
26612;SDS011;14248;57.652;11.908;2022-12-18T15:08:49;24.27;;;10.13;;
26612;SDS011;14248;57.652;11.908;2022-12-18T15:11:35;22.98;;;9.10;;
26612;SDS011;14248;57.652;11.908;2022-12-18T15:16:50;30.52;;;10.38;;
26612;SDS011;14248;57.652;11.908;2022-12-18T15:19:17;28.75;;;12.05;;
26612;SDS011;14248;57.652;11.908;2022-12-18T15:21:43;33.22;;;13.80;;
26612;SDS011;14248;57.652;11.908;2022-12-18T15:24:16;33.05;;;12.65;;
26612;SDS011;14248;57.652;11.908;2022-12-18T15:26:44;34.63;;;12.52;;
26612;SDS011;14248;57.652;11.908;2022-12-18T15:29:22;29.13;;;12.32;;
26612;SDS011;14248;57.652;11.908;2022-12-18T15:32:04;33.45;;;13.63;;
26612;SDS011;14248;57.652;11.908;2022-12-18T15:34:40;42.25;;;15.68;;
26612;SDS011;14248;57.652;11.908;2022-12-18T15:37:07;37.55;;;15.52;;
26612;SDS011;14248;57.652;11.908;2022-12-18T15:39:33;38.45;;;14.75;;
26612;SDS011;14248;57.652;11.908;2022-12-18T15:42:00;54.85;;;20.90;;
26612;SDS011;14248;57.652;11.908;2022-12-18T15:44:45;56.30;;;20.35;;
26612;SDS011;14248;57.652;11.908;2022-12-18T15:47:11;53.92;;;19.88;;
26612;SDS011;14248;57.652;11.908;2022-12-18T15:49:38;50.42;;;21.88;;
26612;SDS011;14248;57.652;11.908;2022-12-18T15:52:04;55.67;;;22.48;;
26612;SDS011;14248;57.652;11.908;2022-12-18T15:54:30;51.38;;;21.67;;
26612;SDS011;14248;57.652;11.908;2022-12-18T15:57:15;54.25;;;21.27;;
26612;SDS011;14248;57.652;11.908;2022-12-18T15:59:53;54.13;;;20.13;;
26612;SDS011;14248;57.652;11.908;2022-12-18T16:02:22;51.83;;;21.52;;
26612;SDS011;14248;57.652;11.908;2022-12-18T16:04:50;52.53;;;21.17;;
26612;SDS011;14248;57.652;11.908;2022-12-18T16:07:16;62.35;;;22.58;;
26612;SDS011;14248;57.652;11.908;2022-12-18T16:09:42;57.70;;;22.23;;
26612;SDS011;14248;57.652;11.908;2022-12-18T16:12:19;59.08;;;22.20;;
26612;SDS011;14248;57.652;11.908;2022-12-18T16:14:47;53.88;;;22.27;;
26612;SDS011;14248;57.652;11.908;2022-12-18T16:17:13;48.55;;;20.40;;
26612;SDS011;14248;57.652;11.908;2022-12-18T16:19:39;50.67;;;20.15;;
26612;SDS011;14248;57.652;11.908;2022-12-18T16:22:05;44.63;;;18.73;;
26612;SDS011;14248;57.652;11.908;2022-12-18T16:24:32;56.67;;;22.98;;
26612;SDS011;14248;57.652;11.908;2022-12-18T16:27:02;55.65;;;22.00;;
26612;SDS011;14248;57.652;11.908;2022-12-18T16:29:28;52.15;;;21.98;;
26612;SDS011;14248;57.652;11.908;2022-12-18T16:31:58;47.38;;;21.70;;
26612;SDS011;14248;57.652;11.908;2022-12-18T16:34:26;50.97;;;21.27;;
26612;SDS011;14248;57.652;11.908;2022-12-18T16:37:06;40.63;;;18.48;;
26612;SDS011;14248;57.652;11.908;2022-12-18T16:39:33;45.50;;;19.63;;
26612;SDS011;14248;57.652;11.908;2022-12-18T16:41:59;44.50;;;19.40;;
26612;SDS011;14248;57.652;11.908;2022-12-18T16:44:26;54.20;;;20.98;;
26612;SDS011;14248;57.652;11.908;2022-12-18T16:49:26;51.75;;;19.83;;
26612;SDS011;14248;57.652;11.908;2022-12-18T17:00:02;48.22;;;18.58;;
26612;SDS011;14248;57.652;11.908;2022-12-18T17:08:36;45.72;;;17.40;;
26612;SDS011;14248;57.652;11.908;2022-12-18T17:11:08;46.33;;;17.80;;